sensor_id;sensor_type;location;lat;lon;timestamp;pressure;altitude;pressure_sealevel;temperature;humidity
50682;BME280;36779;52.168;20.878;2022-10-16T00:02:27;100578.73;;;13.80;67.84
50682;BME280;36779;52.168;20.878;2022-10-16T00:04:56;100580.13;;;13.84;68.23
50682;BME280;36779;52.168;20.878;2022-10-16T00:07:24;100579.26;;;13.89;68.16
50682;BME280;36779;52.168;20.878;2022-10-16T00:09:52;100576.49;;;13.91;68.04
50682;BME280;36779;52.168;20.878;2022-10-16T00:12:21;100575.17;;;13.94;68.07
50682;BME280;36779;52.168;20.878;2022-10-16T00:14:49;100572.96;;;13.94;68.08
50682;BME280;36779;52.168;20.878;2022-10-16T00:17:18;100572.17;;;13.95;68.29
50682;BME280;36779;52.168;20.878;2022-10-16T00:19:47;100575.61;;;13.96;68.12
50682;BME280;36779;52.168;20.878;2022-10-16T00:22:15;100576.18;;;13.97;68.17
50682;BME280;36779;52.168;20.878;2022-10-16T00:24:43;100577.45;;;14.00;68.13
50682;BME280;36779;52.168;20.878;2022-10-16T00:27:12;100575.77;;;14.04;68.10
50682;BME280;36779;52.168;20.878;2022-10-16T00:29:40;100577.91;;;14.06;67.95
50682;BME280;36779;52.168;20.878;2022-10-16T00:32:08;100581.38;;;14.09;68.00
50682;BME280;36779;52.168;20.878;2022-10-16T00:34:36;100581.81;;;14.10;67.97
50682;BME280;36779;52.168;20.878;2022-10-16T00:37:05;100581.95;;;14.10;67.97
50682;BME280;36779;52.168;20.878;2022-10-16T00:39:33;100584.36;;;14.09;67.83
50682;BME280;36779;52.168;20.878;2022-10-16T00:42:02;100589.64;;;14.07;68.09
50682;BME280;36779;52.168;20.878;2022-10-16T00:44:48;100594.44;;;14.06;68.02
50682;BME280;36779;52.168;20.878;2022-10-16T00:47:24;100594.11;;;14.04;67.98
50682;BME280;36779;52.168;20.878;2022-10-16T00:49:58;100597.09;;;14.04;68.00
50682;BME280;36779;52.168;20.878;2022-10-16T00:52:26;100599.00;;;14.05;67.94
50682;BME280;36779;52.168;20.878;2022-10-16T00:54:56;100597.85;;;14.06;67.91
50682;BME280;36779;52.168;20.878;2022-10-16T00:57:25;100593.96;;;14.05;68.10
50682;BME280;36779;52.168;20.878;2022-10-16T00:59:54;100591.02;;;14.06;67.73
50682;BME280;36779;52.168;20.878;2022-10-16T01:02:22;100595.14;;;14.06;67.86
50682;BME280;36779;52.168;20.878;2022-10-16T01:04:52;100593.88;;;14.04;67.92
50682;BME280;36779;52.168;20.878;2022-10-16T01:07:31;100594.66;;;14.04;67.90
50682;BME280;36779;52.168;20.878;2022-10-16T01:10:13;100593.23;;;14.05;67.99
50682;BME280;36779;52.168;20.878;2022-10-16T01:12:48;100594.18;;;14.08;67.97
50682;BME280;36779;52.168;20.878;2022-10-16T01:15:23;100595.71;;;14.08;68.08
50682;BME280;36779;52.168;20.878;2022-10-16T01:17:58;100601.11;;;14.10;68.04
50682;BME280;36779;52.168;20.878;2022-10-16T01:20:31;100603.19;;;14.09;67.94
50682;BME280;36779;52.168;20.878;2022-10-16T01:23:06;100597.38;;;14.06;68.07
50682;BME280;36779;52.168;20.878;2022-10-16T01:25:53;100602.17;;;14.05;67.87
50682;BME280;36779;52.168;20.878;2022-10-16T01:28:30;100609.05;;;14.02;67.87
50682;BME280;36779;52.168;20.878;2022-10-16T01:31:02;100613.73;;;14.00;67.93
50682;BME280;36779;52.168;20.878;2022-10-16T01:33:36;100618.14;;;13.99;68.04
50682;BME280;36779;52.168;20.878;2022-10-16T01:36:11;100622.80;;;14.00;67.85
50682;BME280;36779;52.168;20.878;2022-10-16T01:38:42;100620.80;;;14.02;67.88
50682;BME280;36779;52.168;20.878;2022-10-16T01:41:16;100626.77;;;14.03;67.84
50682;BME280;36779;52.168;20.878;2022-10-16T01:43:49;100623.98;;;14.02;67.71
50682;BME280;36779;52.168;20.878;2022-10-16T01:46:22;100620.91;;;14.01;67.89
50682;BME280;36779;52.168;20.878;2022-10-16T01:48:54;100620.36;;;14.00;67.70
50682;BME280;36779;52.168;20.878;2022-10-16T01:51:26;100618.05;;;13.98;67.70
50682;BME280;36779;52.168;20.878;2022-10-16T01:53:58;100614.46;;;13.95;67.90
50682;BME280;36779;52.168;20.878;2022-10-16T01:56:29;100613.58;;;13.94;67.84
50682;BME280;36779;52.168;20.878;2022-10-16T01:59:00;100612.75;;;13.93;67.96
50682;BME280;36779;52.168;20.878;2022-10-16T02:01:31;100611.30;;;13.92;67.70
50682;BME280;36779;52.168;20.878;2022-10-16T02:04:07;100611.14;;;13.90;67.75
50682;BME280;36779;52.168;20.878;2022-10-16T02:06:37;100612.05;;;13.88;67.77
50682;BME280;36779;52.168;20.878;2022-10-16T02:09:05;100611.20;;;13.86;67.78
50682;BME280;36779;52.168;20.878;2022-10-16T02:11:33;100612.59;;;13.83;67.77
50682;BME280;36779;52.168;20.878;2022-10-16T02:14:03;100612.95;;;13.80;67.70
50682;BME280;36779;52.168;20.878;2022-10-16T02:16:38;100614.53;;;13.79;67.73
50682;BME280;36779;52.168;20.878;2022-10-16T02:19:07;100612.14;;;13.77;67.74
50682;BME280;36779;52.168;20.878;2022-10-16T02:21:41;100611.43;;;13.76;67.52
50682;BME280;36779;52.168;20.878;2022-10-16T02:24:18;100611.52;;;13.79;67.80
50682;BME280;36779;52.168;20.878;2022-10-16T02:26:52;100606.86;;;13.79;67.58
50682;BME280;36779;52.168;20.878;2022-10-16T02:29:25;100607.13;;;13.74;67.54
50682;BME280;36779;52.168;20.878;2022-10-16T02:31:57;100603.70;;;13.69;67.51
50682;BME280;36779;52.168;20.878;2022-10-16T02:34:28;100609.08;;;13.66;67.61
50682;BME280;36779;52.168;20.878;2022-10-16T02:36:59;100608.93;;;13.64;67.59
50682;BME280;36779;52.168;20.878;2022-10-16T02:39:29;100612.96;;;13.62;67.59
50682;BME280;36779;52.168;20.878;2022-10-16T02:41:58;100614.65;;;13.59;67.76
50682;BME280;36779;52.168;20.878;2022-10-16T02:44:26;100618.67;;;13.57;67.72
50682;BME280;36779;52.168;20.878;2022-10-16T02:46:54;100622.27;;;13.57;67.78
50682;BME280;36779;52.168;20.878;2022-10-16T02:49:23;100619.90;;;13.56;67.83
50682;BME280;36779;52.168;20.878;2022-10-16T02:51:52;100625.75;;;13.54;67.78
50682;BME280;36779;52.168;20.878;2022-10-16T02:54:20;100625.59;;;13.54;67.82
50682;BME280;36779;52.168;20.878;2022-10-16T02:56:49;100626.58;;;13.54;67.69
50682;BME280;36779;52.168;20.878;2022-10-16T02:59:20;100629.88;;;13.53;67.81
50682;BME280;36779;52.168;20.878;2022-10-16T03:01:48;100629.95;;;13.50;67.72
50682;BME280;36779;52.168;20.878;2022-10-16T03:04:18;100633.14;;;13.49;67.92
50682;BME280;36779;52.168;20.878;2022-10-16T03:06:46;100635.36;;;13.50;67.95
50682;BME280;36779;52.168;20.878;2022-10-16T03:09:14;100636.85;;;13.47;67.66
50682;BME280;36779;52.168;20.878;2022-10-16T03:11:43;100640.55;;;13.44;67.55
50682;BME280;36779;52.168;20.878;2022-10-16T03:14:11;100637.98;;;13.46;67.95
50682;BME280;36779;52.168;20.878;2022-10-16T03:16:39;100639.83;;;13.47;67.84
50682;BME280;36779;52.168;20.878;2022-10-16T03:19:08;100639.96;;;13.46;67.94
50682;BME280;36779;52.168;20.878;2022-10-16T03:21:36;100643.67;;;13.44;67.85
50682;BME280;36779;52.168;20.878;2022-10-16T03:24:05;100644.92;;;13.45;67.96
50682;BME280;36779;52.168;20.878;2022-10-16T03:26:33;100644.18;;;13.45;67.73
50682;BME280;36779;52.168;20.878;2022-10-16T03:29:02;100649.20;;;13.43;68.03
50682;BME280;36779;52.168;20.878;2022-10-16T03:31:31;100651.67;;;13.40;67.91
50682;BME280;36779;52.168;20.878;2022-10-16T03:33:59;100659.20;;;13.38;67.89
50682;BME280;36779;52.168;20.878;2022-10-16T03:36:28;100657.42;;;13.38;67.73
50682;BME280;36779;52.168;20.878;2022-10-16T03:38:56;100657.90;;;13.39;68.02
50682;BME280;36779;52.168;20.878;2022-10-16T03:41:24;100657.98;;;13.40;68.07
50682;BME280;36779;52.168;20.878;2022-10-16T03:43:53;100662.96;;;13.40;67.99
50682;BME280;36779;52.168;20.878;2022-10-16T03:46:22;100666.64;;;13.40;68.07
50682;BME280;36779;52.168;20.878;2022-10-16T03:48:53;100672.45;;;13.39;68.10
50682;BME280;36779;52.168;20.878;2022-10-16T03:51:22;100669.05;;;13.36;68.01
50682;BME280;36779;52.168;20.878;2022-10-16T03:53:52;100667.41;;;13.30;67.86
50682;BME280;36779;52.168;20.878;2022-10-16T03:56:21;100663.50;;;13.24;67.91
50682;BME280;36779;52.168;20.878;2022-10-16T03:58:49;100659.81;;;13.18;67.91
50682;BME280;36779;52.168;20.878;2022-10-16T04:01:21;100662.95;;;13.14;67.92
50682;BME280;36779;52.168;20.878;2022-10-16T04:03:53;100668.17;;;13.10;68.02
50682;BME280;36779;52.168;20.878;2022-10-16T04:06:21;100672.66;;;13.09;68.05
50682;BME280;36779;52.168;20.878;2022-10-16T04:08:50;100671.48;;;13.08;67.93
50682;BME280;36779;52.168;20.878;2022-10-16T04:11:21;100667.24;;;13.06;67.96
50682;BME280;36779;52.168;20.878;2022-10-16T04:13:49;100666.67;;;13.05;67.92
50682;BME280;36779;52.168;20.878;2022-10-16T04:16:20;100663.98;;;13.02;67.99
50682;BME280;36779;52.168;20.878;2022-10-16T04:18:49;100668.00;;;12.99;67.95
50682;BME280;36779;52.168;20.878;2022-10-16T04:21:19;100673.02;;;12.98;67.91
50682;BME280;36779;52.168;20.878;2022-10-16T04:23:48;100678.11;;;12.97;68.15
50682;BME280;36779;52.168;20.878;2022-10-16T04:26:17;100683.80;;;12.97;67.97
50682;BME280;36779;52.168;20.878;2022-10-16T04:28:46;100692.13;;;12.98;68.01
50682;BME280;36779;52.168;20.878;2022-10-16T04:31:14;100691.48;;;12.97;68.09
50682;BME280;36779;52.168;20.878;2022-10-16T04:33:43;100692.83;;;12.96;68.17
50682;BME280;36779;52.168;20.878;2022-10-16T04:36:12;100691.13;;;12.93;68.03
50682;BME280;36779;52.168;20.878;2022-10-16T04:38:40;100688.02;;;12.89;67.98
50682;BME280;36779;52.168;20.878;2022-10-16T04:41:09;100687.30;;;12.84;68.10
50682;BME280;36779;52.168;20.878;2022-10-16T04:43:37;100688.81;;;12.81;68.19
50682;BME280;36779;52.168;20.878;2022-10-16T04:46:06;100689.70;;;12.77;67.98
50682;BME280;36779;52.168;20.878;2022-10-16T04:48:34;100691.19;;;12.74;67.95
50682;BME280;36779;52.168;20.878;2022-10-16T04:51:03;100693.27;;;12.69;68.00
50682;BME280;36779;52.168;20.878;2022-10-16T04:53:32;100695.41;;;12.64;68.03
50682;BME280;36779;52.168;20.878;2022-10-16T04:56:02;100696.75;;;12.60;67.94
50682;BME280;36779;52.168;20.878;2022-10-16T04:58:31;100696.14;;;12.55;68.21
50682;BME280;36779;52.168;20.878;2022-10-16T05:01:00;100698.31;;;12.47;67.99
50682;BME280;36779;52.168;20.878;2022-10-16T05:03:28;100696.80;;;12.40;68.02
50682;BME280;36779;52.168;20.878;2022-10-16T05:06:04;100702.06;;;12.36;68.05
50682;BME280;36779;52.168;20.878;2022-10-16T05:08:33;100706.35;;;12.33;68.02
50682;BME280;36779;52.168;20.878;2022-10-16T05:11:02;100710.64;;;12.31;68.21
50682;BME280;36779;52.168;20.878;2022-10-16T05:13:31;100714.91;;;12.32;68.19
50682;BME280;36779;52.168;20.878;2022-10-16T05:15:59;100720.37;;;12.30;68.31
50682;BME280;36779;52.168;20.878;2022-10-16T05:18:28;100722.92;;;12.26;68.16
50682;BME280;36779;52.168;20.878;2022-10-16T05:20:56;100726.76;;;12.22;68.16
50682;BME280;36779;52.168;20.878;2022-10-16T05:23:25;100724.98;;;12.18;68.32
50682;BME280;36779;52.168;20.878;2022-10-16T05:25:55;100725.52;;;12.15;68.25
50682;BME280;36779;52.168;20.878;2022-10-16T05:28:27;100720.45;;;12.12;68.34
50682;BME280;36779;52.168;20.878;2022-10-16T05:30:56;100715.24;;;12.09;68.23
50682;BME280;36779;52.168;20.878;2022-10-16T05:33:26;100718.88;;;12.06;68.14
50682;BME280;36779;52.168;20.878;2022-10-16T05:35:54;100722.81;;;12.02;68.13
50682;BME280;36779;52.168;20.878;2022-10-16T05:38:22;100714.39;;;12.03;68.34
50682;BME280;36779;52.168;20.878;2022-10-16T05:40:54;100718.16;;;12.02;68.16
50682;BME280;36779;52.168;20.878;2022-10-16T05:43:24;100718.84;;;12.01;68.44
50682;BME280;36779;52.168;20.878;2022-10-16T05:45:56;100724.54;;;11.99;68.45
50682;BME280;36779;52.168;20.878;2022-10-16T05:48:26;100729.58;;;11.97;68.42
50682;BME280;36779;52.168;20.878;2022-10-16T05:50:58;100732.98;;;11.97;68.50
50682;BME280;36779;52.168;20.878;2022-10-16T05:53:28;100738.27;;;11.97;68.61
50682;BME280;36779;52.168;20.878;2022-10-16T05:55:58;100738.03;;;11.98;68.55
50682;BME280;36779;52.168;20.878;2022-10-16T05:58:30;100740.79;;;11.98;68.59
50682;BME280;36779;52.168;20.878;2022-10-16T06:01:03;100744.58;;;12.00;68.58
50682;BME280;36779;52.168;20.878;2022-10-16T06:03:33;100746.22;;;12.01;68.58
50682;BME280;36779;52.168;20.878;2022-10-16T06:06:08;100748.30;;;12.04;68.81
50682;BME280;36779;52.168;20.878;2022-10-16T06:08:40;100749.14;;;12.04;68.69
50682;BME280;36779;52.168;20.878;2022-10-16T06:11:11;100749.88;;;12.04;68.65
50682;BME280;36779;52.168;20.878;2022-10-16T06:13:40;100749.91;;;12.07;68.76
50682;BME280;36779;52.168;20.878;2022-10-16T06:16:11;100756.90;;;12.10;68.71
50682;BME280;36779;52.168;20.878;2022-10-16T06:18:40;100759.34;;;12.14;68.74
50682;BME280;36779;52.168;20.878;2022-10-16T06:21:09;100761.57;;;12.19;68.76
50682;BME280;36779;52.168;20.878;2022-10-16T06:23:38;100760.25;;;12.25;68.97
50682;BME280;36779;52.168;20.878;2022-10-16T06:26:07;100760.33;;;12.33;68.92
50682;BME280;36779;52.168;20.878;2022-10-16T06:28:37;100764.25;;;12.39;68.90
50682;BME280;36779;52.168;20.878;2022-10-16T06:31:08;100761.95;;;12.46;68.90
50682;BME280;36779;52.168;20.878;2022-10-16T06:33:37;100765.56;;;12.52;68.92
50682;BME280;36779;52.168;20.878;2022-10-16T06:36:07;100763.01;;;12.58;69.06
50682;BME280;36779;52.168;20.878;2022-10-16T06:38:37;100760.70;;;12.64;68.99
50682;BME280;36779;52.168;20.878;2022-10-16T06:41:07;100762.80;;;12.71;69.05
50682;BME280;36779;52.168;20.878;2022-10-16T06:43:37;100772.60;;;12.78;68.90
50682;BME280;36779;52.168;20.878;2022-10-16T06:46:08;100776.02;;;12.85;69.02
50682;BME280;36779;52.168;20.878;2022-10-16T06:48:38;100774.88;;;12.94;69.22
50682;BME280;36779;52.168;20.878;2022-10-16T06:51:08;100775.88;;;13.02;68.97
50682;BME280;36779;52.168;20.878;2022-10-16T06:53:40;100778.98;;;13.09;69.21
50682;BME280;36779;52.168;20.878;2022-10-16T06:56:29;100779.41;;;13.20;69.32
50682;BME280;36779;52.168;20.878;2022-10-16T06:59:01;100781.83;;;13.30;69.24
50682;BME280;36779;52.168;20.878;2022-10-16T07:01:30;100787.96;;;13.43;69.23
50682;BME280;36779;52.168;20.878;2022-10-16T07:04:00;100794.86;;;13.56;69.28
50682;BME280;36779;52.168;20.878;2022-10-16T07:06:32;100794.92;;;13.66;69.18
50682;BME280;36779;52.168;20.878;2022-10-16T07:09:04;100792.55;;;13.75;69.09
50682;BME280;36779;52.168;20.878;2022-10-16T07:11:35;100792.52;;;13.77;69.29
50682;BME280;36779;52.168;20.878;2022-10-16T07:14:04;100788.77;;;13.77;69.02
50682;BME280;36779;52.168;20.878;2022-10-16T07:16:35;100796.77;;;13.75;69.00
50682;BME280;36779;52.168;20.878;2022-10-16T07:19:03;100796.64;;;13.77;69.01
50682;BME280;36779;52.168;20.878;2022-10-16T07:21:33;100795.54;;;13.77;68.98
50682;BME280;36779;52.168;20.878;2022-10-16T07:24:06;100797.63;;;13.80;69.15
50682;BME280;36779;52.168;20.878;2022-10-16T07:26:36;100794.82;;;13.88;69.21
50682;BME280;36779;52.168;20.878;2022-10-16T07:29:12;100780.77;;;13.94;68.97
50682;BME280;36779;52.168;20.878;2022-10-16T07:31:42;100769.31;;;13.99;69.01
50682;BME280;36779;52.168;20.878;2022-10-16T07:34:12;100766.83;;;14.14;69.41
50682;BME280;36779;52.168;20.878;2022-10-16T07:36:41;100766.08;;;14.68;69.86
50682;BME280;36779;52.168;20.878;2022-10-16T07:39:15;100782.19;;;15.68;70.93
50682;BME280;36779;52.168;20.878;2022-10-16T07:41:43;100803.03;;;16.35;70.48
50682;BME280;36779;52.168;20.878;2022-10-16T07:44:11;100800.80;;;16.59;69.81
50682;BME280;36779;52.168;20.878;2022-10-16T07:46:40;100796.86;;;16.63;69.41
50682;BME280;36779;52.168;20.878;2022-10-16T07:49:09;100793.45;;;16.66;68.89
50682;BME280;36779;52.168;20.878;2022-10-16T07:51:38;100793.06;;;16.67;68.70
50682;BME280;36779;52.168;20.878;2022-10-16T07:54:08;100788.34;;;16.72;68.48
50682;BME280;36779;52.168;20.878;2022-10-16T07:56:37;100784.09;;;16.78;68.58
50682;BME280;36779;52.168;20.878;2022-10-16T07:59:11;100786.09;;;16.85;68.39
50682;BME280;36779;52.168;20.878;2022-10-16T08:01:39;100790.08;;;16.91;68.42
50682;BME280;36779;52.168;20.878;2022-10-16T08:04:10;100790.61;;;17.00;68.51
50682;BME280;36779;52.168;20.878;2022-10-16T08:06:39;100793.28;;;17.06;68.37
50682;BME280;36779;52.168;20.878;2022-10-16T08:09:08;100797.90;;;17.05;68.20
50682;BME280;36779;52.168;20.878;2022-10-16T08:11:36;100806.28;;;17.05;68.29
50682;BME280;36779;52.168;20.878;2022-10-16T08:14:05;100811.79;;;17.04;68.21
50682;BME280;36779;52.168;20.878;2022-10-16T08:16:37;100813.65;;;17.04;68.10
50682;BME280;36779;52.168;20.878;2022-10-16T08:19:05;100812.85;;;17.07;68.22
50682;BME280;36779;52.168;20.878;2022-10-16T08:21:33;100810.07;;;17.18;68.49
50682;BME280;36779;52.168;20.878;2022-10-16T08:24:02;100812.10;;;17.33;68.44
50682;BME280;36779;52.168;20.878;2022-10-16T08:26:30;100813.88;;;17.44;68.17
50682;BME280;36779;52.168;20.878;2022-10-16T08:28:58;100817.46;;;17.47;68.01
50682;BME280;36779;52.168;20.878;2022-10-16T08:31:27;100820.27;;;17.46;67.92
50682;BME280;36779;52.168;20.878;2022-10-16T08:33:56;100828.46;;;17.51;68.04
50682;BME280;36779;52.168;20.878;2022-10-16T08:36:24;100827.36;;;17.59;67.92
50682;BME280;36779;52.168;20.878;2022-10-16T08:38:52;100832.98;;;17.72;68.01
50682;BME280;36779;52.168;20.878;2022-10-16T08:41:38;100834.25;;;17.80;67.87
50682;BME280;36779;52.168;20.878;2022-10-16T08:44:29;100829.41;;;17.90;67.92
50682;BME280;36779;52.168;20.878;2022-10-16T08:47:05;100830.37;;;18.00;67.89
50682;BME280;36779;52.168;20.878;2022-10-16T08:49:36;100830.66;;;18.08;67.74
50682;BME280;36779;52.168;20.878;2022-10-16T08:52:11;100834.02;;;18.17;67.71
50682;BME280;36779;52.168;20.878;2022-10-16T08:54:43;100835.48;;;18.22;67.54
50682;BME280;36779;52.168;20.878;2022-10-16T08:57:16;100840.36;;;18.26;67.41
50682;BME280;36779;52.168;20.878;2022-10-16T08:59:54;100841.87;;;18.27;67.36
50682;BME280;36779;52.168;20.878;2022-10-16T09:02:32;100844.35;;;18.34;67.39
50682;BME280;36779;52.168;20.878;2022-10-16T09:05:19;100840.38;;;18.42;67.43
50682;BME280;36779;52.168;20.878;2022-10-16T09:07:59;100847.10;;;18.65;67.62
50682;BME280;36779;52.168;20.878;2022-10-16T09:10:41;100856.70;;;18.94;67.62
50682;BME280;36779;52.168;20.878;2022-10-16T09:13:19;100856.80;;;19.08;67.29
50682;BME280;36779;52.168;20.878;2022-10-16T09:15:55;100855.17;;;19.18;67.11
50682;BME280;36779;52.168;20.878;2022-10-16T09:18:29;100844.22;;;19.35;67.13
50682;BME280;36779;52.168;20.878;2022-10-16T09:21:10;100835.13;;;19.60;67.34
50682;BME280;36779;52.168;20.878;2022-10-16T09:23:42;100827.34;;;20.00;67.43
50682;BME280;36779;52.168;20.878;2022-10-16T09:26:14;100829.69;;;20.40;67.18
50682;BME280;36779;52.168;20.878;2022-10-16T09:28:43;100833.73;;;20.60;66.77
50682;BME280;36779;52.168;20.878;2022-10-16T09:31:17;100832.18;;;20.76;66.53
50682;BME280;36779;52.168;20.878;2022-10-16T09:33:49;100832.38;;;20.88;66.44
50682;BME280;36779;52.168;20.878;2022-10-16T09:36:20;100835.54;;;20.95;65.99
50682;BME280;36779;52.168;20.878;2022-10-16T09:38:49;100838.48;;;20.98;65.99
50682;BME280;36779;52.168;20.878;2022-10-16T09:41:20;100833.89;;;20.94;65.69
50682;BME280;36779;52.168;20.878;2022-10-16T09:43:53;100830.57;;;20.86;65.49
50682;BME280;36779;52.168;20.878;2022-10-16T09:46:28;100834.13;;;20.70;65.38
50682;BME280;36779;52.168;20.878;2022-10-16T09:48:59;100836.04;;;20.55;65.34
50682;BME280;36779;52.168;20.878;2022-10-16T09:51:30;100837.84;;;20.40;65.24
50682;BME280;36779;52.168;20.878;2022-10-16T09:54:00;100836.89;;;20.30;65.25
50682;BME280;36779;52.168;20.878;2022-10-16T09:56:30;100838.56;;;20.29;65.64
50682;BME280;36779;52.168;20.878;2022-10-16T09:59:08;100834.90;;;20.46;66.02
50682;BME280;36779;52.168;20.878;2022-10-16T10:01:40;100826.37;;;20.77;66.03
50682;BME280;36779;52.168;20.878;2022-10-16T10:04:09;100831.55;;;20.93;65.58
50682;BME280;36779;52.168;20.878;2022-10-16T10:06:43;100833.71;;;20.94;65.28
50682;BME280;36779;52.168;20.878;2022-10-16T10:09:19;100837.99;;;21.02;65.37
50682;BME280;36779;52.168;20.878;2022-10-16T10:11:51;100843.31;;;21.15;65.50
50682;BME280;36779;52.168;20.878;2022-10-16T10:14:22;100845.51;;;21.18;65.28
50682;BME280;36779;52.168;20.878;2022-10-16T10:17:02;100844.38;;;21.18;65.14
50682;BME280;36779;52.168;20.878;2022-10-16T10:19:39;100840.16;;;21.19;65.05
50682;BME280;36779;52.168;20.878;2022-10-16T10:22:22;100835.52;;;21.26;65.15
50682;BME280;36779;52.168;20.878;2022-10-16T10:25:14;100835.09;;;21.33;64.99
50682;BME280;36779;52.168;20.878;2022-10-16T10:27:56;100830.98;;;21.38;64.95
50682;BME280;36779;52.168;20.878;2022-10-16T10:30:33;100828.37;;;21.34;64.73
50682;BME280;36779;52.168;20.878;2022-10-16T10:33:14;100829.44;;;21.31;64.47
50682;BME280;36779;52.168;20.878;2022-10-16T10:35:49;100827.32;;;21.14;64.20
50682;BME280;36779;52.168;20.878;2022-10-16T10:38:33;100829.48;;;20.99;64.23
50682;BME280;36779;52.168;20.878;2022-10-16T10:41:19;100833.03;;;20.86;64.05
50682;BME280;36779;52.168;20.878;2022-10-16T10:44:03;100839.03;;;20.80;64.04
50682;BME280;36779;52.168;20.878;2022-10-16T10:46:41;100835.16;;;20.64;63.92
50682;BME280;36779;52.168;20.878;2022-10-16T10:49:26;100832.68;;;20.53;63.95
50682;BME280;36779;52.168;20.878;2022-10-16T10:52:05;100833.06;;;20.45;64.09
50682;BME280;36779;52.168;20.878;2022-10-16T10:54:45;100831.27;;;20.37;63.97
50682;BME280;36779;52.168;20.878;2022-10-16T10:57:27;100825.05;;;20.21;63.85
50682;BME280;36779;52.168;20.878;2022-10-16T11:00:03;100820.95;;;20.09;63.89
50682;BME280;36779;52.168;20.878;2022-10-16T11:02:41;100822.71;;;20.05;64.07
50682;BME280;36779;52.168;20.878;2022-10-16T11:05:38;100822.34;;;20.03;64.07
50682;BME280;36779;52.168;20.878;2022-10-16T11:08:13;100821.20;;;20.10;64.27
50682;BME280;36779;52.168;20.878;2022-10-16T11:10:52;100821.75;;;20.15;64.19
50682;BME280;36779;52.168;20.878;2022-10-16T11:13:30;100821.80;;;20.12;63.99
50682;BME280;36779;52.168;20.878;2022-10-16T11:16:06;100820.12;;;20.08;63.93
50682;BME280;36779;52.168;20.878;2022-10-16T11:18:48;100814.23;;;20.01;63.91
50682;BME280;36779;52.168;20.878;2022-10-16T11:21:20;100814.80;;;19.96;63.95
50682;BME280;36779;52.168;20.878;2022-10-16T11:23:57;100815.02;;;20.03;64.21
50682;BME280;36779;52.168;20.878;2022-10-16T11:26:32;100815.27;;;20.11;64.12
50682;BME280;36779;52.168;20.878;2022-10-16T11:29:04;100817.85;;;20.12;64.00
50682;BME280;36779;52.168;20.878;2022-10-16T11:31:41;100820.90;;;20.10;63.93
50682;BME280;36779;52.168;20.878;2022-10-16T11:34:15;100824.33;;;20.10;64.06
50682;BME280;36779;52.168;20.878;2022-10-16T11:36:50;100823.41;;;20.10;63.95
50682;BME280;36779;52.168;20.878;2022-10-16T11:39:24;100834.50;;;20.14;64.10
50682;BME280;36779;52.168;20.878;2022-10-16T11:42:02;100833.27;;;20.20;64.15
50682;BME280;36779;52.168;20.878;2022-10-16T11:44:39;100831.17;;;20.33;64.21
50682;BME280;36779;52.168;20.878;2022-10-16T11:47:23;100827.09;;;20.41;64.16
50682;BME280;36779;52.168;20.878;2022-10-16T11:50:20;100817.30;;;20.40;63.92
50682;BME280;36779;52.168;20.878;2022-10-16T11:53:00;100818.29;;;20.36;63.86
50682;BME280;36779;52.168;20.878;2022-10-16T11:55:32;100815.39;;;20.40;63.95
50682;BME280;36779;52.168;20.878;2022-10-16T11:58:05;100804.99;;;20.46;63.93
50682;BME280;36779;52.168;20.878;2022-10-16T12:00:39;100808.59;;;20.51;63.84
50682;BME280;36779;52.168;20.878;2022-10-16T12:03:17;100807.57;;;20.52;63.95
50682;BME280;36779;52.168;20.878;2022-10-16T12:06:04;100819.61;;;20.58;63.89
50682;BME280;36779;52.168;20.878;2022-10-16T12:08:37;100821.34;;;20.56;63.64
50682;BME280;36779;52.168;20.878;2022-10-16T12:11:20;100823.48;;;20.51;63.60
50682;BME280;36779;52.168;20.878;2022-10-16T12:13:50;100817.20;;;20.50;63.56
50682;BME280;36779;52.168;20.878;2022-10-16T12:16:24;100824.89;;;20.54;63.61
50682;BME280;36779;52.168;20.878;2022-10-16T12:19:11;100829.11;;;20.58;63.66
50682;BME280;36779;52.168;20.878;2022-10-16T12:21:40;100830.64;;;20.61;63.53
50682;BME280;36779;52.168;20.878;2022-10-16T12:24:22;100832.17;;;20.62;63.61
50682;BME280;36779;52.168;20.878;2022-10-16T12:26:57;100835.53;;;20.66;63.65
50682;BME280;36779;52.168;20.878;2022-10-16T12:29:33;100833.40;;;20.66;63.45
50682;BME280;36779;52.168;20.878;2022-10-16T12:32:03;100832.22;;;20.62;63.26
50682;BME280;36779;52.168;20.878;2022-10-16T12:34:38;100829.92;;;20.56;63.20
50682;BME280;36779;52.168;20.878;2022-10-16T12:37:18;100832.78;;;20.53;63.34
50682;BME280;36779;52.168;20.878;2022-10-16T12:39:49;100835.10;;;20.54;63.41
50682;BME280;36779;52.168;20.878;2022-10-16T12:42:32;100834.66;;;20.56;63.32
50682;BME280;36779;52.168;20.878;2022-10-16T12:45:12;100838.97;;;20.52;63.28
50682;BME280;36779;52.168;20.878;2022-10-16T12:47:50;100839.73;;;20.38;63.01
50682;BME280;36779;52.168;20.878;2022-10-16T12:50:28;100835.79;;;20.25;63.10
50682;BME280;36779;52.168;20.878;2022-10-16T12:52:58;100834.83;;;20.16;63.10
50682;BME280;36779;52.168;20.878;2022-10-16T12:58:38;100844.44;;;20.07;63.20
50682;BME280;36779;52.168;20.878;2022-10-16T13:01:26;100844.15;;;20.03;63.14
50682;BME280;36779;52.168;20.878;2022-10-16T13:04:25;100842.71;;;19.99;63.13
50682;BME280;36779;52.168;20.878;2022-10-16T13:07:02;100835.98;;;19.94;63.18
50682;BME280;36779;52.168;20.878;2022-10-16T13:09:46;100836.75;;;19.90;63.19
50682;BME280;36779;52.168;20.878;2022-10-16T13:12:30;100832.89;;;19.83;63.16